Arapahoe, CO

3:29 PM MST on December 26, 2014 (GMT -0700)
KWS | Change Station
CLOSE
Current Station
Personal Weather Station
Location: Cheyenne Wells, CO
Elevation: 4252 ft
Nearby Weather Stations
Active Advisory: Winter Weather Advisory

Elev 4252 ft 38.82 °N, 102.33 °W | Updated 4 minutes ago

Overcast
Overcast
19.3 °F
Feels Like 9 °F
N
8.0
Wind Variable Wind from NNE
Gusts 10.0 mph

Today
High -- | Low -- °F
--% Chance of Precip.
Yesterday
High -- | Low -- °F
Precip. -- in
7:06 AM 4:33 PM
Waxing Crescent, 29% visible
Pressure 29.95 in
Visibility 4.0 miles
Clouds Few 900 ft
Mostly Cloudy 2700 ft
Overcast 3600 ft
Windchill 9 °F
Dew Point 16 °F
Humidity 87%
Rainfall 0.00 in
Snow Depth Not available.
UV 0 out of 12
Pollen .10 out of 12
Air Quality Not available.
Flu Activity Not available.
SPECI KITR 262222Z AUTO 02009KT 4SM -SN FEW009 BKN027 OVC036 M07/M09 A2995 RMK AO2 P0000 T10671094

More Conditions Fewer Conditions

Pressure 29.95 in
Visibility 4.0 miles
Clouds Few 900 ft
Mostly Cloudy 2700 ft
Overcast 3600 ft
Windchill 9 °F
Dew Point 16 °F
Humidity 87%
Rainfall 0.00 in
Snow Depth Not available.
UV 0 out of 12
Pollen .10 out of 12
Air Quality Not available.
Flu Activity Not available.
SPECI KITR 262222Z AUTO 02009KT 4SM -SN FEW009 BKN027 OVC036 M07/M09 A2995 RMK AO2 P0000 T10671094

More Conditions Fewer Conditions

10-Day Weather Forecast

Almanac

Astronomy

Dec. 26, 2014 Rise Set
Actual Time
Civil Twilight
Nautical Twilight
Astronomical Twilight
Moon
Length of Visible Light
Length of Day
Tomorrow will be .
, % of the Moon is Illuminated

Today's Extremes

State Highs State Lows

Community

WunderPhotos

Upload Photos

1,780,737 photos uploaded!

WunderBlogs® & News

Nearby

Air Quality

  Air Quality AQ Index Pollutant
Not available.

Snow Depth

Station Depth Elevation

Earthquake Activity

City Distance Mag. Time & Date
Minimum magnitude displayed is 2.5.

Coastal Water Temperatures

Place Temperature

Nearby Weather Stations